createdAt,value
2023-03-13T00:02:23.648Z,5.31
2023-03-13T00:05:09.747Z,5.24
2023-03-13T00:07:55.755Z,5.26
2023-03-13T00:10:42.443Z,5.23
2023-03-13T00:13:28.937Z,5.22
2023-03-13T00:16:16.735Z,5.10
2023-03-13T00:19:05.534Z,5.07
2023-03-13T00:21:51.577Z,5.11
2023-03-13T00:24:37.490Z,5.07
2023-03-13T00:27:23.475Z,4.94
2023-03-13T00:30:10.857Z,4.85
2023-03-13T00:32:56.936Z,4.91
2023-03-13T00:35:42.621Z,4.86
2023-03-13T00:38:32.095Z,4.85
2023-03-13T00:41:20.409Z,4.73
2023-03-13T00:44:07.038Z,4.76
2023-03-13T00:46:52.995Z,4.70
2023-03-13T00:49:38.760Z,4.72
2023-03-13T00:52:28.147Z,4.64
2023-03-13T00:55:14.106Z,4.62
2023-03-13T00:58:00.200Z,4.61
2023-03-13T01:00:46.063Z,4.59
2023-03-13T01:03:32.013Z,4.56
2023-03-13T01:06:22.745Z,4.51
2023-03-13T01:09:11.806Z,4.51
2023-03-13T01:11:57.870Z,4.50
2023-03-13T01:14:43.582Z,4.50
2023-03-13T01:17:30.037Z,4.45
2023-03-13T01:20:16.041Z,4.47
2023-03-13T01:23:02.309Z,4.42
2023-03-13T01:25:48.520Z,4.41
2023-03-13T01:28:35.355Z,4.38
2023-03-13T01:31:33.056Z,4.24
2023-03-13T01:34:19.638Z,4.28
2023-03-13T01:37:05.421Z,4.24
2023-03-13T01:39:51.308Z,4.19
2023-03-13T01:42:57.891Z,4.17
2023-03-13T01:46:05.961Z,4.12
2023-03-13T01:49:11.169Z,4.02
2023-03-13T01:52:20.085Z,4.01
2023-03-13T01:55:13.847Z,4.01
2023-03-13T01:58:01.996Z,4.00
2023-03-13T02:00:48.959Z,3.88
2023-03-13T02:03:35.782Z,3.87
2023-03-13T02:06:21.978Z,3.84
2023-03-13T02:09:12.739Z,3.85
2023-03-13T02:12:09.925Z,3.75
2023-03-13T02:14:56.810Z,3.75
2023-03-13T02:17:42.895Z,3.73
2023-03-13T02:20:29.011Z,3.71
2023-03-13T02:23:20.366Z,3.61
2023-03-13T02:26:06.915Z,3.57
2023-03-13T02:28:53.691Z,3.64
2023-03-13T02:31:40.025Z,3.61
2023-03-13T02:34:29.508Z,3.55
2023-03-13T02:37:17.806Z,3.55
2023-03-13T02:40:09.680Z,3.47
2023-03-13T02:42:56.943Z,3.52
2023-03-13T02:45:43.457Z,3.51
2023-03-13T02:48:41.923Z,3.44
2023-03-13T02:51:35.708Z,3.45
2023-03-13T02:54:25.003Z,3.34
2023-03-13T02:57:11.099Z,3.22
2023-03-13T02:59:57.200Z,3.35
2023-03-13T03:02:44.278Z,3.30
2023-03-13T03:05:30.261Z,3.28
2023-03-13T03:08:16.894Z,3.30
2023-03-13T03:11:03.057Z,3.18
2023-03-13T03:13:48.945Z,3.16
2023-03-13T03:16:36.230Z,3.12
2023-03-13T03:19:24.707Z,3.22
2023-03-13T03:22:10.724Z,3.10
2023-03-13T03:24:56.556Z,3.24
2023-03-13T03:27:43.383Z,3.23
2023-03-13T03:30:29.082Z,3.16
2023-03-13T03:33:14.841Z,3.26
2023-03-13T03:36:02.238Z,3.17
2023-03-13T03:38:49.600Z,3.11
2023-03-13T03:41:38.496Z,3.22
2023-03-13T03:44:25.255Z,3.21
2023-03-13T03:47:17.312Z,3.20
2023-03-13T03:50:07.738Z,3.23
2023-03-13T03:53:01.757Z,3.19
2023-03-13T03:55:47.594Z,3.24
2023-03-13T03:58:33.403Z,3.22
2023-03-13T04:01:39.834Z,3.20
2023-03-13T04:04:25.764Z,3.20
2023-03-13T04:07:18.734Z,3.09
2023-03-13T04:10:05.271Z,3.19
2023-03-13T04:12:57.298Z,3.22
2023-03-13T04:15:43.862Z,3.09
2023-03-13T04:18:30.926Z,3.17
2023-03-13T04:21:16.670Z,3.08
2023-03-13T04:24:07.847Z,3.17
2023-03-13T04:26:58.572Z,3.18
2023-03-13T04:29:45.388Z,3.18
2023-03-13T04:32:58.373Z,3.13
2023-03-13T04:36:19.738Z,3.20
2023-03-13T04:39:28.706Z,3.16
2023-03-13T04:42:29.716Z,3.07
2023-03-13T04:45:28.190Z,3.17
2023-03-13T04:48:14.658Z,3.15
2023-03-13T04:51:23.676Z,3.18
2023-03-13T04:54:29.874Z,3.14
2023-03-13T04:57:34.421Z,3.12
2023-03-13T05:00:34.930Z,3.11
2023-03-13T05:03:39.888Z,3.14
2023-03-13T05:06:48.350Z,3.04
2023-03-13T05:10:00.655Z,3.03
2023-03-13T05:12:52.800Z,3.19
2023-03-13T05:15:47.849Z,3.08
2023-03-13T05:18:55.072Z,3.08
2023-03-13T05:21:53.997Z,3.18
2023-03-13T05:25:06.326Z,3.18
2023-03-13T05:28:10.826Z,3.16
2023-03-13T05:31:13.730Z,3.10
2023-03-13T05:34:18.633Z,3.07
2023-03-13T05:37:27.716Z,3.11
2023-03-13T05:40:49.256Z,3.26
2023-03-13T05:44:02.724Z,3.33
2023-03-13T05:47:07.421Z,3.22
2023-03-13T05:50:03.475Z,3.37
2023-03-13T05:53:13.064Z,3.25
2023-03-13T05:56:10.661Z,3.52
2023-03-13T05:59:19.568Z,3.56
2023-03-13T06:02:32.113Z,3.58
2023-03-13T06:05:19.034Z,3.57
2023-03-13T06:08:06.021Z,3.55
2023-03-13T06:10:51.711Z,3.71
2023-03-13T06:13:37.978Z,3.75
2023-03-13T06:16:50.690Z,3.40
2023-03-13T06:19:40.171Z,3.84
2023-03-13T06:22:26.254Z,3.94
2023-03-13T06:25:11.893Z,4.00
2023-03-13T06:27:57.835Z,4.08
2023-03-13T06:30:43.927Z,4.19
2023-03-13T06:33:31.101Z,4.23
2023-03-13T06:36:16.839Z,4.17
2023-03-13T06:39:03.307Z,4.26
2023-03-13T06:41:49.246Z,4.41
2023-03-13T06:44:34.976Z,4.49
2023-03-13T06:47:20.727Z,4.57
2023-03-13T06:50:06.985Z,4.63
2023-03-13T06:52:53.211Z,4.70
2023-03-13T06:55:39.107Z,4.77
2023-03-13T06:58:32.085Z,4.85
2023-03-13T07:01:18.702Z,4.85
2023-03-13T07:04:04.977Z,4.93
2023-03-13T07:06:51.910Z,5.03
2023-03-13T07:09:38.042Z,5.08
2023-03-13T07:12:24.268Z,5.13
2023-03-13T07:15:11.024Z,5.20
2023-03-13T07:17:58.588Z,5.21
2023-03-13T07:20:44.502Z,5.30
2023-03-13T07:23:30.333Z,5.45
2023-03-13T07:26:16.817Z,5.49
2023-03-13T07:29:02.646Z,5.49
2023-03-13T07:31:48.329Z,5.69
2023-03-13T07:34:34.202Z,5.78
2023-03-13T07:37:20.022Z,5.81
2023-03-13T07:40:06.359Z,5.88
2023-03-13T07:42:52.377Z,5.97
2023-03-13T07:45:38.109Z,6.05
2023-03-13T07:48:32.177Z,6.06
2023-03-13T07:51:30.468Z,6.16
2023-03-13T07:54:22.880Z,6.23
2023-03-13T07:57:09.145Z,6.34
2023-03-13T07:59:55.025Z,6.38
2023-03-13T08:02:41.048Z,6.23
2023-03-13T08:05:26.728Z,6.48
2023-03-13T08:08:12.651Z,6.48
2023-03-13T08:11:01.624Z,6.54
2023-03-13T08:13:47.901Z,6.54
2023-03-13T08:16:35.246Z,6.60
2023-03-13T08:19:21.695Z,6.66
2023-03-13T08:22:07.549Z,6.71
2023-03-13T08:24:53.518Z,6.84
2023-03-13T08:27:39.403Z,6.85
2023-03-13T08:30:25.133Z,7.05
2023-03-13T08:33:11.182Z,6.97
2023-03-13T08:35:57.288Z,7.14
2023-03-13T08:38:46.023Z,7.25
2023-03-13T08:41:36.120Z,7.35
2023-03-13T08:44:21.953Z,7.50
2023-03-13T08:47:08.380Z,7.57
2023-03-13T08:49:55.393Z,7.50
2023-03-13T08:52:44.783Z,7.65
2023-03-13T08:55:30.766Z,7.75
2023-03-13T08:58:16.495Z,7.72
2023-03-13T09:01:05.144Z,7.94
2023-03-13T09:03:51.626Z,8.05
2023-03-13T09:06:38.539Z,8.00
2023-03-13T09:09:24.723Z,8.08
2023-03-13T09:12:24.521Z,8.24
2023-03-13T09:15:16.311Z,8.29
2023-03-13T09:18:02.003Z,8.43
2023-03-13T09:20:49.061Z,8.51
2023-03-13T09:23:35.342Z,8.64
2023-03-13T09:26:23.350Z,8.75
2023-03-13T09:29:10.339Z,8.84
2023-03-13T09:31:56.137Z,8.91
2023-03-13T09:34:41.926Z,9.00
2023-03-13T09:37:27.739Z,9.06
2023-03-13T09:40:16.317Z,9.00
2023-03-13T09:43:02.175Z,9.24
2023-03-13T09:45:49.972Z,9.19
2023-03-13T09:48:49.436Z,9.26
2023-03-13T09:51:38.296Z,9.26
2023-03-13T09:55:05.718Z,9.25
2023-03-13T09:58:26.867Z,9.37
2023-03-13T10:01:13.065Z,9.34
2023-03-13T10:04:12.945Z,9.46
2023-03-13T10:06:59.046Z,9.60
2023-03-13T10:09:44.891Z,9.53
2023-03-13T10:12:38.226Z,9.46
2023-03-13T10:15:30.120Z,9.59
2023-03-13T10:18:21.886Z,9.41
2023-03-13T10:21:16.394Z,9.69
2023-03-13T10:24:06.462Z,9.64
2023-03-13T10:26:52.312Z,9.83
2023-03-13T10:29:38.841Z,9.92
2023-03-13T10:32:24.909Z,10.00
2023-03-13T10:35:15.387Z,9.99
2023-03-13T10:38:14.107Z,9.81
2023-03-13T10:41:03.235Z,10.06
2023-03-13T10:43:54.725Z,10.27
2023-03-13T10:46:42.269Z,10.35
2023-03-13T10:49:29.248Z,10.29
2023-03-13T10:52:45.569Z,10.36
2023-03-13T10:55:31.668Z,10.39
2023-03-13T10:58:28.306Z,10.38
2023-03-13T11:01:29.046Z,10.54
2023-03-13T11:04:32.992Z,10.52
2023-03-13T11:07:30.959Z,10.79
2023-03-13T11:10:32.535Z,10.70
2023-03-13T11:13:36.532Z,10.88
2023-03-13T11:16:26.903Z,11.17
2023-03-13T11:19:21.964Z,11.14
2023-03-13T11:22:14.287Z,11.31
2023-03-13T11:25:32.446Z,11.10
2023-03-13T11:28:30.362Z,11.15
2023-03-13T11:31:25.155Z,11.41
2023-03-13T11:34:33.037Z,11.40
2023-03-13T11:37:21.892Z,11.43
2023-03-13T11:40:29.119Z,11.47
2023-03-13T11:43:30.500Z,11.62
2023-03-13T11:46:35.175Z,11.69
2023-03-13T11:49:45.597Z,11.74
2023-03-13T11:52:37.435Z,11.75
2023-03-13T11:55:41.569Z,11.93
2023-03-13T11:58:42.958Z,11.99
2023-03-13T12:01:56.184Z,12.03
2023-03-13T12:04:49.376Z,12.13
2023-03-13T12:07:44.603Z,12.05
2023-03-13T12:10:35.212Z,12.26
2023-03-13T12:13:29.629Z,12.27
2023-03-13T12:16:19.997Z,12.38
2023-03-13T12:19:06.101Z,12.42
2023-03-13T12:21:54.183Z,12.61
2023-03-13T12:25:10.806Z,12.49
2023-03-13T12:28:05.908Z,12.57
2023-03-13T12:31:30.774Z,12.47
2023-03-13T12:34:22.577Z,12.76
2023-03-13T12:37:18.726Z,12.76
2023-03-13T12:40:35.470Z,12.74
2023-03-13T12:43:28.981Z,12.90
2023-03-13T12:46:21.251Z,13.02
2023-03-13T12:49:39.664Z,13.04
2023-03-13T12:52:31.706Z,13.13
2023-03-13T12:55:56.437Z,13.18
2023-03-13T12:59:03.675Z,13.22
2023-03-13T13:01:56.506Z,13.35
2023-03-13T13:04:44.990Z,13.52
2023-03-13T13:07:32.866Z,13.63
2023-03-13T13:10:22.985Z,13.64
2023-03-13T13:13:15.269Z,13.84
2023-03-13T13:16:12.216Z,13.86
2023-03-13T13:19:23.494Z,14.05
2023-03-13T13:22:36.755Z,14.14
2023-03-13T13:25:33.857Z,14.33
2023-03-13T13:28:21.906Z,14.62
2023-03-13T13:31:45.114Z,14.67
2023-03-13T13:34:31.353Z,14.99
2023-03-13T13:37:23.629Z,15.10
2023-03-13T13:40:15.376Z,15.32
2023-03-13T13:43:05.837Z,15.49
2023-03-13T13:46:07.244Z,15.67
2023-03-13T13:49:15.896Z,15.81
2023-03-13T13:52:01.573Z,15.98
2023-03-13T13:54:47.302Z,16.16
2023-03-13T13:57:35.838Z,16.51
2023-03-13T14:00:25.391Z,17.06
2023-03-13T14:03:43.483Z,17.73
2023-03-13T14:06:32.303Z,18.15
2023-03-13T14:09:28.968Z,18.53
2023-03-13T14:12:32.618Z,18.85
2023-03-13T14:15:22.823Z,19.23
2023-03-13T14:18:29.068Z,19.74
2023-03-13T14:21:14.793Z,20.18
2023-03-13T14:24:00.527Z,20.46
2023-03-13T14:26:46.646Z,20.84
2023-03-13T14:29:32.654Z,21.12
2023-03-13T14:32:18.835Z,21.45
2023-03-13T14:35:06.228Z,21.74
2023-03-13T14:37:54.493Z,21.93
2023-03-13T14:40:40.485Z,22.04
2023-03-13T14:43:36.617Z,22.12
2023-03-13T14:46:34.627Z,22.06
2023-03-13T14:49:24.444Z,22.18
2023-03-13T14:52:22.029Z,22.24
2023-03-13T14:55:28.535Z,22.49
2023-03-13T14:58:20.580Z,22.79
2023-03-13T15:01:30.677Z,23.12
2023-03-13T15:04:17.085Z,23.31
2023-03-13T15:07:03.518Z,23.45
2023-03-13T15:09:50.425Z,23.50
2023-03-13T15:12:43.115Z,23.55
2023-03-13T15:15:28.912Z,23.51
2023-03-13T15:18:26.519Z,23.34
2023-03-13T15:21:18.313Z,23.03
2023-03-13T15:24:22.213Z,22.72
2023-03-13T15:27:15.727Z,22.49
2023-03-13T15:30:01.481Z,22.16
2023-03-13T15:32:48.058Z,21.88
2023-03-13T15:35:34.053Z,21.58
2023-03-13T15:38:22.663Z,21.35
2023-03-13T15:41:09.390Z,21.06
2023-03-13T15:43:57.026Z,20.98
2023-03-13T15:46:43.144Z,20.86
2023-03-13T15:49:29.231Z,20.67
2023-03-13T15:52:22.714Z,20.50
2023-03-13T15:55:11.194Z,20.26
2023-03-13T15:57:57.344Z,20.03
2023-03-13T16:00:44.076Z,19.71
2023-03-13T16:03:30.469Z,19.40
2023-03-13T16:06:28.188Z,19.01
2023-03-13T16:09:14.159Z,18.67
2023-03-13T16:12:00.304Z,18.29
2023-03-13T16:14:48.663Z,18.05
2023-03-13T16:17:35.083Z,17.75
2023-03-13T16:20:23.641Z,17.50
2023-03-13T16:23:09.594Z,17.22
2023-03-13T16:25:55.320Z,17.02
2023-03-13T16:28:41.105Z,16.80
2023-03-13T16:31:29.916Z,16.61
2023-03-13T16:34:15.781Z,16.30
2023-03-13T16:37:01.596Z,16.24
2023-03-13T16:39:48.414Z,16.06
2023-03-13T16:42:34.242Z,15.91
2023-03-13T16:45:20.181Z,15.68
2023-03-13T16:48:06.149Z,15.55
2023-03-13T16:50:52.165Z,15.48
2023-03-13T16:53:38.188Z,15.31
2023-03-13T16:56:33.915Z,15.17
2023-03-13T16:59:20.056Z,15.04
2023-03-13T17:02:14.058Z,14.83
2023-03-13T17:04:59.770Z,14.70
2023-03-13T17:07:48.037Z,14.68
2023-03-13T17:10:34.107Z,14.55
2023-03-13T17:13:20.551Z,14.41
2023-03-13T17:16:14.109Z,14.21
2023-03-13T17:19:00.364Z,14.18
2023-03-13T17:21:46.217Z,14.07
2023-03-13T17:24:32.372Z,14.05
2023-03-13T17:27:18.555Z,13.94
2023-03-13T17:30:19.049Z,13.73
2023-03-13T17:33:05.144Z,13.73
2023-03-13T17:35:51.041Z,13.61
2023-03-13T17:38:36.781Z,13.53
2023-03-13T17:41:25.992Z,13.40
2023-03-13T17:44:12.050Z,13.36
2023-03-13T17:46:58.023Z,13.27
2023-03-13T17:49:44.183Z,13.07
2023-03-13T17:52:30.492Z,13.05
2023-03-13T17:55:16.639Z,13.03
2023-03-13T17:58:02.622Z,12.87
2023-03-13T18:00:48.845Z,12.73
2023-03-13T18:03:34.802Z,12.56
2023-03-13T18:06:38.754Z,12.65
2023-03-13T18:09:25.342Z,12.55
2023-03-13T18:12:11.681Z,12.49
2023-03-13T18:14:57.689Z,12.39
2023-03-13T18:17:43.844Z,12.22
2023-03-13T18:20:31.562Z,12.27
2023-03-13T18:23:17.720Z,12.01
2023-03-13T18:26:20.601Z,12.01
2023-03-13T18:29:18.000Z,12.01
2023-03-13T18:32:03.723Z,12.05
2023-03-13T18:34:49.482Z,11.89
2023-03-13T18:37:35.826Z,11.95
2023-03-13T18:40:24.863Z,11.86
2023-03-13T18:43:11.001Z,11.73
2023-03-13T18:45:57.164Z,11.77
2023-03-13T18:48:43.461Z,11.71
2023-03-13T18:51:30.852Z,11.66
2023-03-13T18:54:17.146Z,11.58
2023-03-13T18:57:03.077Z,11.49
2023-03-13T18:59:48.990Z,11.45
2023-03-13T19:02:34.952Z,11.37
2023-03-13T19:05:20.749Z,11.37
2023-03-13T19:08:06.524Z,11.18
2023-03-13T19:10:52.524Z,11.20
2023-03-13T19:13:38.629Z,11.18
2023-03-13T19:16:27.543Z,11.10
2023-03-13T19:19:23.618Z,10.91
2023-03-13T19:22:13.576Z,10.97
2023-03-13T19:24:59.309Z,10.89
2023-03-13T19:27:45.876Z,10.77
2023-03-13T19:30:31.949Z,10.82
2023-03-13T19:33:17.681Z,10.74
2023-03-13T19:36:03.756Z,10.73
2023-03-13T19:38:49.932Z,10.70
2023-03-13T19:41:36.204Z,10.59
2023-03-13T19:44:22.438Z,10.54
2023-03-13T19:47:13.682Z,10.40
2023-03-13T19:50:00.446Z,10.40
2023-03-13T19:52:46.672Z,10.32
2023-03-13T19:55:32.733Z,10.31
2023-03-13T19:58:18.769Z,10.13
2023-03-13T20:01:15.121Z,10.14
2023-03-13T20:04:03.551Z,10.10
2023-03-13T20:06:49.525Z,10.05
2023-03-13T20:09:36.323Z,9.97
2023-03-13T20:12:22.719Z,9.93
2023-03-13T20:15:09.202Z,9.91
2023-03-13T20:17:55.384Z,9.82
2023-03-13T20:20:41.249Z,9.80
2023-03-13T20:23:27.016Z,9.59
2023-03-13T20:26:15.580Z,9.68
2023-03-13T20:29:01.575Z,9.57
2023-03-13T20:31:47.436Z,9.58
2023-03-13T20:34:34.010Z,9.55
2023-03-13T20:37:20.833Z,9.46
2023-03-13T20:40:08.818Z,9.41
2023-03-13T20:42:54.599Z,9.29
2023-03-13T20:45:40.431Z,9.35
2023-03-13T20:48:26.650Z,9.34
2023-03-13T20:51:13.251Z,9.25
2023-03-13T20:53:59.425Z,9.14
2023-03-13T20:56:45.368Z,9.10
2023-03-13T20:59:31.899Z,9.15
2023-03-13T21:02:18.269Z,9.01
2023-03-13T21:05:04.035Z,9.11
2023-03-13T21:07:50.213Z,9.02
2023-03-13T21:10:40.863Z,8.98
2023-03-13T21:13:26.989Z,8.80
2023-03-13T21:16:13.958Z,8.79
2023-03-13T21:18:59.961Z,8.82
2023-03-13T21:21:46.875Z,8.84
2023-03-13T21:24:33.759Z,8.83
2023-03-13T21:27:19.760Z,8.69
2023-03-13T21:30:07.564Z,8.64
2023-03-13T21:32:54.550Z,8.74
2023-03-13T21:35:40.720Z,8.66
2023-03-13T21:38:26.523Z,8.65
2023-03-13T21:41:18.094Z,8.63
2023-03-13T21:44:04.233Z,8.60
2023-03-13T21:46:51.771Z,8.51
2023-03-13T21:49:37.700Z,8.52
2023-03-13T21:52:23.619Z,8.50
2023-03-13T21:55:12.810Z,8.50
2023-03-13T21:57:58.894Z,8.33
2023-03-13T22:00:44.984Z,8.37
2023-03-13T22:03:31.951Z,8.40
2023-03-13T22:06:20.043Z,8.38
2023-03-13T22:09:07.757Z,8.30
2023-03-13T22:11:53.698Z,8.15
2023-03-13T22:14:39.387Z,8.12
2023-03-13T22:17:25.243Z,8.18
2023-03-13T22:20:11.929Z,8.14
2023-03-13T22:22:57.908Z,7.98
2023-03-13T22:25:43.978Z,8.02
2023-03-13T22:28:29.822Z,7.96
2023-03-13T22:31:15.584Z,7.95
2023-03-13T22:34:01.491Z,7.86
2023-03-13T22:36:47.369Z,7.76
2023-03-13T22:39:33.229Z,7.72
2023-03-13T22:42:19.052Z,7.78
2023-03-13T22:45:05.157Z,7.68
2023-03-13T22:47:51.235Z,7.57
2023-03-13T22:50:37.329Z,7.60
2023-03-13T22:53:22.995Z,7.54
2023-03-13T22:56:10.113Z,7.49
2023-03-13T22:58:56.211Z,7.47
2023-03-13T23:01:41.958Z,7.46
2023-03-13T23:04:27.968Z,7.32
2023-03-13T23:07:13.716Z,7.27
2023-03-13T23:09:59.620Z,7.35
2023-03-13T23:12:45.463Z,7.29
2023-03-13T23:15:43.026Z,7.16
2023-03-13T23:18:37.910Z,7.08
2023-03-13T23:21:24.072Z,7.22
2023-03-13T23:24:09.757Z,7.07
2023-03-13T23:26:55.837Z,7.05
2023-03-13T23:29:41.693Z,7.05
2023-03-13T23:32:28.424Z,7.04
2023-03-13T23:35:16.991Z,7.02
2023-03-13T23:38:02.912Z,6.98
2023-03-13T23:40:48.761Z,6.85
2023-03-13T23:43:35.232Z,6.83
2023-03-13T23:46:23.405Z,6.85
2023-03-13T23:49:09.156Z,6.82
2023-03-13T23:51:55.044Z,6.77
2023-03-13T23:54:41.050Z,6.79
2023-03-13T23:57:26.878Z,6.64
